KBIE

Details ICAO KBIE
Name BEATRICE MUNI
Region United States
Timezone America/Chicago (UTC-6.0)
Plans Departing 4
Arriving 0
Stats Elevation 1,324 ft / 404 m (AMSL)
Location 40.301190° -96.754295°
Runways 2
Magnetic Variation 3.167° E
Sunrise 2017-12-11 13:41:19 UTC / 2017-12-11 07:41:19 Local
Sunset 2017-12-11 23:02:23 UTC / 2017-12-11 17:02:23 Local
Advertisement - Login to hide

Runways

ID Width Length Bearing (true) Bearing (mag) Surface Threshold Offset Overrun Length
13 98 ft / 30 m 4,376 ft / 1,334 m 143.70° 140.53° Asphalt 0 ft / 0 m 0 ft / 0 m
17 98 ft / 30 m 5,611 ft / 1,710 m 179.60° 176.43° Asphalt 0 ft / 0 m 0 ft / 0 m
31 98 ft / 30 m 4,376 ft / 1,334 m 323.70° 320.53° Asphalt 0 ft / 0 m 0 ft / 0 m
35 98 ft / 30 m 5,611 ft / 1,710 m 359.60° 356.43° Asphalt 0 ft / 0 m 0 ft / 0 m

Map

Weather


0- 5 10 15 20 25 30 35+ Temperature / ° C

Clouds and Precipitation
Forecast for 2017-12-12 00:00 UTC. Updated 2 hours ago

Ground ~20,000 ft ~40,000 ft Winds

METAR

KBIE 112050Z AUTO 33023G33KT 10SM OVC055 09/M01 A3010 RMK AO2 T00871008

TAF

Not found

Frequencies

Unicom 122.80 MHz CTAF/UNICOM
Warning: Do not use this data for real-world aviation or navigation. No guarantee of current accuracy is given.